Time;durP1;ratioP1;P1;durP2;ratioP2;P2;SDS_P1;SDS_P2;PMS_P1;PMS_P2;Temp;Humidity;BMP_temperature;BMP_pressure;BME280_temperature;BME280_humidity;BME280_pressure;Samples;Min_cycle;Max_cycle;Signal;HPM_P1;HPM_P2
2022/09/01 00:01:09;;;;;;;4.35;1.80;;;;;;;16.22;54.60;101997.69;4915250;29;20036;-78
2022/09/01 00:03:35;;;;;;;5.85;1.50;;;;;;;16.21;55.01;101986.13;4915304;29;20036;-78
2022/09/01 00:06:02;;;;;;;4.82;2.17;;;;;;;16.23;55.22;101989.63;4882706;29;20084;-77
2022/09/01 00:08:28;;;;;;;3.17;1.70;;;;;;;16.22;54.83;101989.66;4893391;29;20040;-78
2022/09/01 00:10:54;;;;;;;4.97;1.70;;;;;;;16.23;55.38;101992.31;4918205;29;20051;-78
2022/09/01 00:13:19;;;;;;;3.30;1.70;;;;;;;16.23;55.92;101986.09;4901347;29;20039;-79
2022/09/01 00:15:45;;;;;;;6.40;1.70;;;;;;;16.25;55.76;101985.13;4900603;29;20124;-79
2022/09/01 00:18:11;;;;;;;2.92;1.38;;;;;;;16.24;56.57;101988.69;4917728;29;20454;-78
2022/09/01 00:21:03;;;;;;;2.40;1.50;;;;;;;16.26;55.81;101981.53;4884318;29;20032;-79
2022/09/01 00:23:29;;;;;;;4.47;1.60;;;;;;;16.25;56.95;101978.91;4900506;29;20032;-78
2022/09/01 00:25:54;;;;;;;4.53;1.63;;;;;;;16.25;56.69;101982.47;4898282;29;20412;-78
2022/09/01 00:28:20;;;;;;;2.88;1.75;;;;;;;16.23;57.07;101978.06;4871816;29;20054;-78
2022/09/01 00:30:46;;;;;;;5.50;1.88;;;;;;;16.23;57.40;101978.94;4900308;29;20044;-78
2022/09/01 00:33:12;;;;;;;3.17;1.70;;;;;;;16.20;57.48;101989.72;4900153;29;20094;-78
2022/09/01 00:35:38;;;;;;;5.50;1.70;;;;;;;16.20;57.71;101986.19;4919716;29;20063;-78
2022/09/01 00:38:03;;;;;;;5.75;1.98;;;;;;;16.19;57.53;101989.75;4883171;29;20079;-79
2022/09/01 00:40:30;;;;;;;3.85;1.35;;;;;;;16.16;58.05;101990.72;4917029;29;20437;-79
2022/09/01 00:42:55;;;;;;;3.72;1.45;;;;;;;16.13;57.86;101989.00;4900488;29;20024;-78
2022/09/01 00:45:21;;;;;;;9.18;1.70;;;;;;;16.14;58.15;101987.19;4900036;29;20047;-78
2022/09/01 00:47:47;;;;;;;4.07;1.60;;;;;;;16.08;58.40;101974.88;4895493;29;20064;-79
2022/09/01 00:50:16;;;;;;;2.58;1.52;;;;;;;16.06;58.33;101974.03;4899955;29;20054;-79
2022/09/01 00:52:46;;;;;;;3.80;1.80;;;;;;;16.08;58.37;101974.03;4900491;29;20035;-79
2022/09/01 00:55:17;;;;;;;3.40;1.40;;;;;;;16.06;58.41;101979.38;4884577;29;20032;-79
2022/09/01 00:57:44;;;;;;;;;;;;;;;16.17;56.18;101979.13;4900161;29;20028;-79
2022/09/01 01:00:17;;;;;;;2.47;1.52;;;;;;;16.06;58.33;101981.19;4913618;29;19915;-79
2022/09/01 01:02:43;;;;;;;2.35;1.50;;;;;;;16.01;58.96;101970.63;4914702;29;20416;-79
2022/09/01 01:05:11;;;;;;;4.97;1.77;;;;;;;16.01;58.87;101977.75;4895599;29;20500;-80
2022/09/01 01:07:43;;;;;;;4.40;1.48;;;;;;;15.99;59.16;101971.59;4883404;29;20028;-80
2022/09/01 01:10:12;;;;;;;2.35;1.52;;;;;;;15.95;59.58;101970.81;4882514;29;20040;-79
2022/09/01 01:12:39;;;;;;;3.28;1.70;;;;;;;15.93;59.56;101975.31;4899591;29;20071;-80
2022/09/01 01:15:07;;;;;;;2.22;1.58;;;;;;;15.90;59.52;101973.59;4915837;29;20476;-79
2022/09/01 01:17:33;;;;;;;6.22;1.70;;;;;;;15.86;59.90;101968.38;4901698;29;20055;-80
2022/09/01 01:23:02;;;;;;;3.35;1.40;;;;;;;15.82;59.75;101967.53;4899170;29;20155;-80
2022/09/01 01:25:47;;;;;;;7.15;1.83;;;;;;;15.81;59.68;101963.13;4899085;29;20392;-79
2022/09/01 01:28:29;;;;;;;5.80;1.48;;;;;;;15.79;59.78;101970.31;4913656;29;20036;-80
2022/09/01 01:30:58;;;;;;;6.15;1.75;;;;;;;15.77;60.29;101969.47;4899090;29;20032;-79
2022/09/01 01:33:30;;;;;;;5.28;1.67;;;;;;;15.77;60.12;101963.25;4899010;29;20485;-79
2022/09/01 01:35:56;;;;;;;6.10;1.60;;;;;;;15.75;60.11;101965.97;4901326;29;20085;-79
2022/09/01 01:38:26;;;;;;;2.10;1.50;;;;;;;15.74;60.38;101972.22;4898676;29;20834;-79
2022/09/01 01:40:53;;;;;;;3.45;1.70;;;;;;;15.68;60.97;101973.22;4898890;29;20392;-79
2022/09/01 01:43:21;;;;;;;3.75;1.73;;;;;;;15.67;60.87;101970.56;4899166;29;20450;-79
2022/09/01 01:45:51;;;;;;;4.20;1.95;;;;;;;15.64;61.28;101968.00;4898018;29;20028;-79
2022/09/01 01:48:23;;;;;;;6.90;1.90;;;;;;;15.61;61.21;101968.94;4898626;29;20032;-79
2022/09/01 01:50:51;;;;;;;8.93;1.75;;;;;;;15.60;61.53;101969.88;4899003;29;20083;-79
2022/09/01 01:53:18;;;;;;;4.15;1.75;;;;;;;15.59;61.44;101968.09;4899020;29;20035;-79
2022/09/01 01:55:48;;;;;;;4.80;1.80;;;;;;;15.59;61.44;101978.78;4866381;29;20039;-79
2022/09/01 01:58:19;;;;;;;5.60;1.80;;;;;;;15.56;61.74;101984.22;4898933;29;20069;-79
2022/09/01 02:00:48;;;;;;;6.88;2.25;;;;;;;15.53;61.53;101978.94;4883984;29;20032;-79
2022/09/01 02:03:17;;;;;;;7.65;1.88;;;;;;;15.48;61.90;101980.84;4915675;29;20577;-79
2022/09/01 02:05:46;;;;;;;3.30;1.92;;;;;;;15.47;61.87;101977.28;4896777;29;20457;-79
2022/09/01 02:08:14;;;;;;;7.82;1.80;;;;;;;15.46;61.96;101980.00;4883040;29;20492;-79
2022/09/01 02:10:45;;;;;;;5.40;1.98;;;;;;;15.47;61.67;101982.63;4898512;29;20039;-79
2022/09/01 02:13:17;;;;;;;5.00;2.20;;;;;;;15.45;62.09;101981.81;4898542;29;20035;-79
2022/09/01 02:15:47;;;;;;;3.85;2.22;;;;;;;15.44;62.22;101982.69;4898329;29;20115;-79
2022/09/01 02:18:16;;;;;;;4.63;2.08;;;;;;;15.43;62.40;101969.38;4899921;29;20040;-78
2022/09/01 02:20:44;;;;;;;3.75;1.80;;;;;;;15.40;61.95;101988.16;4898263;29;20102;-79
2022/09/01 02:23:10;;;;;;;5.32;1.98;;;;;;;15.40;62.43;101989.00;4898338;29;20392;-79
2022/09/01 02:25:43;;;;;;;5.25;1.65;;;;;;;15.39;62.37;101983.72;4897980;29;20032;-79
2022/09/01 02:28:14;;;;;;;4.75;1.90;;;;;;;15.36;62.85;101983.81;4898180;29;20035;-79
2022/09/01 02:30:44;;;;;;;7.72;2.10;;;;;;;15.31;62.92;101983.03;4897624;29;20040;-79
2022/09/01 02:33:17;;;;;;;5.35;1.98;;;;;;;15.28;62.95;101983.97;4898266;29;20028;-79
2022/09/01 02:35:47;;;;;;;3.90;1.92;;;;;;;15.25;63.01;101979.56;4898059;29;20028;-79
2022/09/01 02:38:13;;;;;;;5.47;1.83;;;;;;;15.22;63.07;101977.00;4899307;29;20492;-79
2022/09/01 02:40:43;;;;;;;6.28;2.10;;;;;;;15.22;63.44;101976.13;4881227;29;20042;-79
2022/09/01 02:43:10;;;;;;;4.68;1.75;;;;;;;15.21;63.22;101979.72;4898699;29;20044;-79
2022/09/01 02:45:37;;;;;;;5.40;1.88;;;;;;;15.18;62.62;101974.41;4866101;29;20036;-79
2022/09/01 02:48:08;;;;;;;6.60;2.17;;;;;;;15.14;63.46;101975.44;4899301;29;20051;-79
2022/09/01 02:50:39;;;;;;;5.05;2.08;;;;;;;15.16;63.19;101984.28;4878742;29;20032;-79
2022/09/01 02:53:08;;;;;;;4.45;1.70;;;;;;;15.11;63.35;101973.72;4897325;29;20127;-79
2022/09/01 02:55:39;;;;;;;5.75;1.90;;;;;;;15.05;63.42;101964.03;4894288;29;20025;-79
2022/09/01 02:58:06;;;;;;;8.82;2.03;;;;;;;15.03;63.54;101972.97;4883958;29;20088;-79
2022/09/01 03:00:34;;;;;;;4.75;2.25;;;;;;;15.00;63.66;101973.06;4897950;29;20448;-79
2022/09/01 03:03:01;;;;;;;9.35;2.45;;;;;;;14.99;63.13;101972.19;4895426;29;20046;-79
2022/09/01 03:05:29;;;;;;;5.15;1.83;;;;;;;14.93;63.77;101961.63;4911975;29;20078;-79
2022/09/01 03:08:01;;;;;;;6.15;1.95;;;;;;;14.88;62.97;101960.84;4897697;29;20028;-79
2022/09/01 03:10:36;;;;;;;5.32;1.95;;;;;;;14.88;63.34;101970.66;4914773;29;20091;-79
2022/09/01 03:13:07;;;;;;;6.57;1.98;;;;;;;14.84;63.41;101972.53;4897853;29;20040;-79
2022/09/01 03:15:35;;;;;;;2.72;1.80;;;;;;;14.80;63.49;101960.16;4913188;29;20032;-79
2022/09/01 03:18:03;;;;;;;3.78;2.22;;;;;;;14.77;63.88;101966.44;4897743;29;20134;-79
2022/09/01 03:20:32;;;;;;;4.28;2.10;;;;;;;14.76;63.97;101963.78;4897750;29;20028;-79
2022/09/01 03:23:00;;;;;;;3.22;1.70;;;;;;;14.74;63.86;101958.50;4883352;29;20405;-79
2022/09/01 03:25:26;;;;;;;6.10;2.15;;;;;;;14.70;64.58;101961.28;4897233;29;20040;-79
2022/09/01 03:27:52;;;;;;;4.45;1.83;;;;;;;14.67;63.86;101956.00;4878623;29;20630;-79
2022/09/01 03:30:18;;;;;;;5.03;2.03;;;;;;;14.64;63.98;101959.63;4879072;29;20044;-79
2022/09/01 03:32:46;;;;;;;6.38;2.10;;;;;;;14.61;64.58;101949.00;4894467;29;20056;-79
2022/09/01 03:35:12;;;;;;;4.22;1.90;;;;;;;14.61;64.28;101962.31;4895777;29;20081;-79
2022/09/01 03:37:43;;;;;;;5.55;2.15;;;;;;;14.55;64.62;101952.69;4877944;29;20119;-79
2022/09/01 03:40:10;;;;;;;4.15;2.10;;;;;;;14.54;64.51;101956.25;4897384;29;20041;-79
2022/09/01 03:42:36;;;;;;;5.72;2.22;;;;;;;14.55;63.24;101958.00;4898024;29;20036;-79
2022/09/01 03:45:07;;;;;;;7.85;2.20;;;;;;;14.53;64.24;101959.81;4899527;29;20035;-79
2022/09/01 03:47:39;;;;;;;5.38;2.03;;;;;;;14.51;63.73;101966.06;4897074;29;20032;-79
2022/09/01 03:50:20;;;;;;;5.80;2.10;;;;;;;14.49;64.57;101965.22;4882484;29;20565;-79
2022/09/01 03:52:52;;;;;;;4.53;2.03;;;;;;;14.46;64.74;101963.47;4897348;29;20037;-79
2022/09/01 03:55:22;;;;;;;3.72;1.77;;;;;;;14.39;64.74;101957.41;4898079;29;20477;-79
2022/09/01 03:57:50;;;;;;;6.20;2.10;;;;;;;14.41;64.97;101955.59;4897970;29;20485;-78
2022/09/01 04:00:19;;;;;;;4.90;2.25;;;;;;;14.38;64.60;101960.09;4897872;29;20091;-79
2022/09/01 04:02:49;;;;;;;5.50;2.05;;;;;;;14.37;65.14;101955.69;4897843;29;20396;-79
2022/09/01 04:05:23;;;;;;;4.43;1.83;;;;;;;14.33;64.88;101960.19;4895639;29;20032;-79
2022/09/01 04:07:50;;;;;;;5.85;2.00;;;;;;;14.32;64.54;101955.78;4877393;29;20132;-78
2022/09/01 04:10:17;;;;;;;4.07;2.22;;;;;;;14.28;65.13;101961.19;4913365;29;20036;-78
2022/09/01 04:12:44;;;;;;;6.43;1.90;;;;;;;14.22;65.72;101953.31;4897607;29;20064;-78
2022/09/01 04:15:11;;;;;;;5.13;2.00;;;;;;;14.19;65.23;101954.25;4884562;29;20032;-78
2022/09/01 04:20:22;;;;;;;4.80;2.20;;;;;;;14.10;65.10;101957.97;4898269;29;20658;-78
2022/09/01 04:22:50;;;;;;;6.93;2.10;;;;;;;14.07;65.62;101957.13;4878558;29;20727;-78
2022/09/01 04:25:22;;;;;;;4.13;2.00;;;;;;;14.03;65.15;101955.47;4897969;29;20560;-78
2022/09/01 04:27:55;;;;;;;7.97;2.30;;;;;;;14.00;65.34;101956.41;4879966;29;20049;-78
2022/09/01 04:30:30;;;;;;;7.20;1.88;;;;;;;13.97;64.87;101961.75;4905952;29;20033;-78
2022/09/01 04:32:56;;;;;;;4.82;1.73;;;;;;;13.95;65.20;101963.59;4897936;29;20121;-78
2022/09/01 04:35:31;;;;;;;4.55;2.08;;;;;;;13.94;64.88;101967.13;4896090;29;20446;-78
2022/09/01 04:38:00;;;;;;;4.53;2.00;;;;;;;13.93;64.54;101966.28;4898435;29;20495;-78
2022/09/01 04:40:27;;;;;;;4.53;2.10;;;;;;;13.89;65.51;101956.56;4884458;29;20047;-78
2022/09/01 04:42:53;;;;;;;5.10;2.15;;;;;;;13.88;65.27;101961.94;4897619;29;20157;-78
2022/09/01 04:45:21;;;;;;;4.90;1.80;;;;;;;13.87;64.82;101961.06;4897474;29;20123;-78
2022/09/01 04:47:48;;;;;;;3.00;1.80;;;;;;;13.86;65.58;101956.63;4880588;29;20117;-78
2022/09/01 04:50:16;;;;;;;5.03;1.98;;;;;;;13.80;65.85;101961.16;4896660;29;20135;-78
2022/09/01 04:53:01;;;;;;;5.85;1.90;;;;;;;13.81;64.69;101962.94;4894547;29;20404;-79
2022/09/01 04:55:30;;;;;;;5.75;2.00;;;;;;;13.74;65.59;101956.84;4897194;29;20051;-78
2022/09/01 04:57:59;;;;;;;3.63;2.00;;;;;;;13.72;65.68;101962.22;4897136;29;20041;-78
2022/09/01 05:00:30;;;;;;;2.33;1.70;;;;;;;13.72;65.04;101958.66;4900634;29;20032;-78
2022/09/01 05:03:03;;;;;;;6.45;2.35;;;;;;;13.71;65.02;101965.75;4897872;29;20036;-78
2022/09/01 05:05:41;;;;;;;2.65;1.45;;;;;;;13.71;65.24;101963.09;4908042;29;20035;-78
2022/09/01 05:08:13;;;;;;;7.43;1.73;;;;;;;13.70;65.34;101964.00;4896756;29;20084;-79
2022/09/01 05:10:43;;;;;;;4.40;1.90;;;;;;;13.67;65.50;101968.50;4897217;29;20446;-78
2022/09/01 05:13:19;;;;;;;9.45;2.10;;;;;;;13.67;65.57;101968.50;4898329;29;20060;-78
2022/09/01 05:15:46;;;;;;;3.58;1.80;;;;;;;13.69;64.96;101972.88;4897129;29;20059;-78
2022/09/01 05:18:14;;;;;;;4.68;2.00;;;;;;;13.67;65.47;101964.03;4893972;29;20401;-78
2022/09/01 05:20:41;;;;;;;6.22;1.95;;;;;;;13.68;65.50;101967.63;4898278;29;20497;-78
2022/09/01 05:23:11;;;;;;;4.00;1.92;;;;;;;13.69;65.46;101969.34;4881485;29;20041;-78
2022/09/01 05:25:43;;;;;;;5.65;2.05;;;;;;;13.70;65.26;101973.78;4866476;29;20045;-78
2022/09/01 05:28:11;;;;;;;;;;;;;;;13.79;63.67;101967.41;4900531;29;20051;-78
2022/09/01 05:30:40;;;;;;;4.82;2.25;;;;;;;13.71;65.69;101968.41;4900173;29;19951;-78
2022/09/01 05:33:11;;;;;;;8.57;2.30;;;;;;;13.72;65.28;101970.19;4899985;29;20066;-78
2022/09/01 05:35:42;;;;;;;3.38;2.10;;;;;;;13.75;65.14;101970.13;4900411;29;20135;-78
2022/09/01 05:38:11;;;;;;;;;;;;;;;13.86;63.67;101967.28;4900339;29;20032;-78
2022/09/01 05:40:42;;;;;;;4.60;2.15;;;;;;;13.79;64.76;101972.75;4899642;29;19918;-78
2022/09/01 05:43:13;;;;;;;4.25;1.90;;;;;;;13.81;64.96;101970.94;4916693;29;20047;-78
2022/09/01 05:45:43;;;;;;;2.92;1.83;;;;;;;13.83;65.13;101977.13;4898755;29;20394;-78
2022/09/01 05:48:14;;;;;;;2.42;1.80;;;;;;;13.83;65.06;101985.09;4899454;29;20036;-78
2022/09/01 05:50:41;;;;;;;3.65;2.22;;;;;;;13.83;65.40;101985.09;4899057;29;20058;-78
2022/09/01 05:53:14;;;;;;;11.38;2.30;;;;;;;13.82;65.49;101984.19;4899307;29;20024;-78
2022/09/01 05:55:42;;;;;;;10.10;2.17;;;;;;;13.85;64.99;101991.28;4915061;29;20038;-78
2022/09/01 05:58:12;;;;;;;2.45;1.98;;;;;;;13.86;64.81;101985.91;4887245;29;20092;-78
2022/09/01 06:00:40;;;;;;;5.60;2.20;;;;;;;13.87;64.93;101981.47;4899255;29;20036;-79
2022/09/01 06:03:08;;;;;;;7.93;2.28;;;;;;;13.89;64.95;101977.00;4883543;29;20437;-78
2022/09/01 06:05:38;;;;;;;4.68;2.30;;;;;;;13.94;64.79;101984.00;4897377;29;20481;-78
2022/09/01 06:08:09;;;;;;;6.93;2.45;;;;;;;13.99;64.92;101981.25;4899232;29;20028;-79
2022/09/01 06:10:38;;;;;;;9.27;2.35;;;;;;;14.05;64.46;101982.94;4902718;29;20496;-78
2022/09/01 06:13:06;;;;;;;7.00;2.05;;;;;;;14.11;64.74;101978.38;4883664;29;20075;-78
2022/09/01 06:15:32;;;;;;;5.10;2.40;;;;;;;14.19;64.37;101991.53;4899017;29;20047;-78
2022/09/01 06:17:59;;;;;;;7.50;2.33;;;;;;;14.26;64.46;101987.84;4899007;29;20028;-78
2022/09/01 06:20:26;;;;;;;3.90;2.10;;;;;;;14.35;64.30;101984.16;4898671;29;20036;-78
2022/09/01 06:22:52;;;;;;;12.10;3.80;;;;;;;14.40;64.28;101980.47;4914704;29;20044;-78
2022/09/01 06:25:20;;;;;;;5.90;2.40;;;;;;;14.51;64.09;101984.72;4883506;29;20036;-79
2022/09/01 06:27:47;;;;;;;6.00;3.08;;;;;;;14.59;64.47;101988.16;4898772;29;20088;-78
2022/09/01 06:30:23;;;;;;;9.05;3.10;;;;;;;14.66;63.59;101981.75;4898860;29;20031;-78
2022/09/01 06:32:54;;;;;;;6.38;2.60;;;;;;;14.75;63.40;101980.72;4898387;29;20118;-78
2022/09/01 06:35:28;;;;;;;8.52;2.60;;;;;;;14.84;63.48;101988.53;4892639;29;20099;-78
2022/09/01 06:37:55;;;;;;;5.63;2.50;;;;;;;14.91;63.48;101986.59;4914225;29;20028;-78
2022/09/01 06:40:38;;;;;;;9.27;2.30;;;;;;;15.00;63.15;101989.06;4897010;29;20082;-78
2022/09/01 06:43:06;;;;;;;5.25;2.30;;;;;;;15.09;62.96;101988.00;4898361;29;20036;-79
2022/09/01 06:45:40;;;;;;;9.13;2.30;;;;;;;15.21;62.76;101990.38;4880027;29;20039;-78
2022/09/01 06:48:07;;;;;;;8.18;2.30;;;;;;;15.33;62.45;101981.19;4897039;29;20036;-78
2022/09/01 06:50:38;;;;;;;5.20;2.40;;;;;;;15.45;62.48;101991.56;4899131;29;20040;-78
2022/09/01 06:53:09;;;;;;;8.82;2.60;;;;;;;15.56;61.84;101988.69;4880109;29;21157;-78
2022/09/01 06:55:38;;;;;;;;;;;;;;;15.66;61.43;101991.06;4911588;29;20036;-78
2022/09/01 06:58:06;;;;;;;9.15;2.55;;;;;;;15.77;60.74;101985.47;4897095;29;19918;-78
2022/09/01 07:00:40;;;;;;;4.78;2.20;;;;;;;15.87;60.50;101995.03;4897662;29;20044;-78
2022/09/01 07:03:09;;;;;;;7.43;1.90;;;;;;;16.00;59.85;101992.03;4882977;29;20032;-78
2022/09/01 07:05:55;;;;;;;7.95;1.90;;;;;;;16.10;59.58;101993.56;4887900;29;20063;-78
2022/09/01 07:08:39;;;;;;;8.25;2.28;;;;;;;16.19;58.78;101995.97;4870889;29;20068;-79
2022/09/01 07:11:26;;;;;;;7.13;2.13;;;;;;;16.28;58.90;102001.06;4874335;29;20044;-78
2022/09/01 07:14:00;;;;;;;5.38;2.30;;;;;;;16.40;58.53;101999.88;4913863;29;20825;-79
2022/09/01 07:16:29;;;;;;;6.38;2.90;;;;;;;16.49;58.68;102002.28;4902629;29;20027;-79
2022/09/01 07:18:57;;;;;;;9.57;2.20;;;;;;;16.63;58.55;102009.03;4902626;29;20025;-79
2022/09/01 07:21:24;;;;;;;3.45;1.85;;;;;;;16.71;57.88;101997.19;4901169;29;20032;-79
2022/09/01 07:23:50;;;;;;;7.65;2.45;;;;;;;16.83;57.78;102005.81;4901617;29;20040;-79
2022/09/01 07:26:19;;;;;;;5.75;1.90;;;;;;;16.91;57.39;101996.66;4919569;29;20070;-79
2022/09/01 07:28:46;;;;;;;7.32;2.13;;;;;;;17.06;57.57;102002.44;4901647;29;20032;-79
2022/09/01 07:31:19;;;;;;;5.43;2.03;;;;;;;17.20;57.28;101998.41;4902113;29;20042;-79
2022/09/01 07:33:48;;;;;;;9.73;2.25;;;;;;;17.31;56.37;101995.44;4901549;29;20118;-79
2022/09/01 07:36:15;;;;;;;8.30;2.35;;;;;;;17.40;56.24;102008.50;4886317;29;20040;-79
2022/09/01 07:38:42;;;;;;;7.40;2.08;;;;;;;17.49;55.57;102004.66;4901683;29;20041;-78
2022/09/01 07:41:11;;;;;;;7.07;2.33;;;;;;;17.59;55.44;101999.88;4904301;29;20036;-79
2022/09/01 07:44:13;;;;;;;11.70;2.30;;;;;;;17.78;56.03;101995.69;4858574;29;20501;-79
2022/09/01 07:47:05;;;;;;;8.63;2.00;;;;;;;17.95;55.56;101997.81;4875983;29;20045;-79
2022/09/01 07:49:30;;;;;;;7.05;2.22;;;;;;;18.10;55.02;102001.78;4909224;29;20071;-79
2022/09/01 07:51:57;;;;;;;6.50;2.00;;;;;;;18.19;54.44;101997.88;4898795;29;20067;-79
2022/09/01 07:54:24;;;;;;;6.72;2.33;;;;;;;18.25;53.96;101995.88;4901754;29;20504;-79
2022/09/01 07:56:50;;;;;;;5.13;1.92;;;;;;;18.35;54.15;101991.06;4901283;29;20693;-78
2022/09/01 07:59:17;;;;;;;5.93;1.80;;;;;;;18.46;53.75;101994.19;4900655;29;20036;-79
2022/09/01 08:01:56;;;;;;;6.38;2.03;;;;;;;18.58;53.46;101995.56;4887450;29;20518;-78
2022/09/01 08:04:22;;;;;;;6.03;2.35;;;;;;;18.74;53.63;102000.34;4897428;29;20037;-79
2022/09/01 08:06:48;;;;;;;6.53;1.92;;;;;;;18.86;53.42;102006.16;4895151;29;20039;-79
2022/09/01 08:09:14;;;;;;;10.32;2.30;;;;;;;18.97;52.78;101995.03;4900333;29;20079;-79
2022/09/01 08:11:41;;;;;;;11.68;2.15;;;;;;;19.13;52.49;101997.97;4898074;29;20064;-79
2022/09/01 08:14:07;;;;;;;6.68;1.88;;;;;;;19.26;52.02;102001.94;4882675;29;20032;-79
2022/09/01 08:16:33;;;;;;;6.22;2.30;;;;;;;19.36;51.66;102006.94;4899154;29;20108;-78
2022/09/01 08:19:01;;;;;;;5.00;2.08;;;;;;;19.45;50.53;102003.88;4882863;29;20040;-79
2022/09/01 08:21:31;;;;;;;15.75;2.25;;;;;;;19.54;50.66;102015.13;4900812;29;20036;-78
2022/09/01 08:24:01;;;;;;;6.75;2.00;;;;;;;19.60;50.31;102008.63;4899287;29;20127;-80
2022/09/01 08:26:28;;;;;;;4.63;1.90;;;;;;;19.72;50.18;102000.09;4914515;29;20084;-80
2022/09/01 08:28:55;;;;;;;7.35;2.38;;;;;;;19.88;50.07;102000.34;4869138;29;20048;-80
2022/09/01 08:31:26;;;;;;;6.50;1.67;;;;;;;20.04;49.62;101996.97;4917616;29;20473;-80
2022/09/01 08:33:54;;;;;;;4.78;1.80;;;;;;;20.24;50.08;101999.66;4900972;29;20044;-80
2022/09/01 08:36:20;;;;;;;2.60;1.55;;;;;;;20.39;49.67;101995.41;4900012;29;20051;-80
2022/09/01 08:38:45;;;;;;;6.90;2.10;;;;;;;20.54;49.10;101999.25;4900070;29;20032;-80
2022/09/01 08:41:42;;;;;;;6.95;1.90;;;;;;;20.63;49.21;101998.00;4900436;29;20400;-80
2022/09/01 08:44:24;;;;;;;3.90;1.90;;;;;;;20.65;48.24;101990.69;4873505;29;20036;-80
2022/09/01 08:46:56;;;;;;;7.15;1.98;;;;;;;20.74;48.06;102001.06;4899985;29;20051;-80
2022/09/01 08:49:24;;;;;;;6.10;2.10;;;;;;;20.89;48.16;102003.03;4900221;29;20028;-80
2022/09/01 08:52:20;;;;;;;7.70;2.50;;;;;;;20.95;47.80;102004.59;4916432;29;20201;-81
2022/09/01 08:54:49;;;;;;;4.95;2.15;;;;;;;20.99;46.81;102007.06;4900067;29;20043;-80
2022/09/01 08:57:19;;;;;;;10.63;2.33;;;;;;;21.04;46.33;102004.13;4884320;29;20032;-80
2022/09/01 09:00:12;;;;;;;7.45;2.38;;;;;;;21.12;46.63;101998.41;4915523;29;20055;-80
2022/09/01 09:03:12;;;;;;;11.75;2.50;;;;;;;21.23;47.00;102004.13;4915669;29;20047;-80
2022/09/01 09:06:03;;;;;;;8.35;2.00;;;;;;;21.42;46.68;102001.47;4898976;29;20079;-80
2022/09/01 09:08:31;;;;;;;6.57;2.00;;;;;;;21.53;45.64;101993.69;4901435;29;20060;-80
2022/09/01 09:11:15;;;;;;;16.02;2.40;;;;;;;;;;4899673;29;20532;-81
2022/09/01 09:13:58;;;;;;;7.35;2.15;;;;;;;21.70;45.43;102000.94;4903709;29;20060;-81
2022/09/01 09:16:34;;;;;;;7.00;2.15;;;;;;;21.85;45.28;101992.06;4917002;29;20043;-81
2022/09/01 09:19:28;;;;;;;4.60;2.13;;;;;;;21.92;44.21;101992.66;4905387;29;20032;-81
2022/09/01 09:21:56;;;;;;;3.22;1.77;;;;;;;22.06;44.76;101987.41;4908911;29;20083;-81
2022/09/01 09:24:51;;;;;;;8.45;2.15;;;;;;;22.23;44.52;101986.56;4880964;29;20060;-81
2022/09/01 09:27:17;;;;;;;4.88;1.90;;;;;;;22.40;43.31;101982.09;4898335;29;20506;-81
2022/09/01 09:29:45;;;;;;;7.07;2.10;;;;;;;22.52;43.19;101987.69;4916777;29;20036;-81
2022/09/01 09:32:11;;;;;;;6.55;2.10;;;;;;;22.62;42.43;101979.97;4899596;29;20389;-81
2022/09/01 09:34:40;;;;;;;6.78;2.10;;;;;;;22.77;42.81;101986.34;4916451;29;20099;-81
2022/09/01 09:37:30;;;;;;;8.75;2.10;;;;;;;22.93;42.93;101976.47;4914062;29;20059;-81
2022/09/01 09:40:10;;;;;;;7.68;2.30;;;;;;;23.07;42.10;101977.53;4908024;29;20043;-81
2022/09/01 09:42:38;;;;;;;4.60;2.03;;;;;;;23.29;41.54;101975.34;4916355;29;20193;-81
2022/09/01 09:45:40;;;;;;;10.98;1.90;;;;;;;23.43;41.72;101976.41;4906781;29;20067;-81
2022/09/01 09:48:26;;;;;;;5.45;1.73;;;;;;;23.50;39.99;101966.97;4805768;29;20051;-81
2022/09/01 09:50:52;;;;;;;9.57;1.73;;;;;;;23.58;39.58;101953.88;4876965;29;20072;-81
2022/09/01 09:53:26;;;;;;;5.57;1.80;;;;;;;23.68;39.31;101954.19;4911939;29;20128;-81
2022/09/01 09:56:13;;;;;;;12.57;1.75;;;;;;;23.81;39.60;101952.53;4916022;29;20059;-81
2022/09/01 09:58:41;;;;;;;10.77;1.70;;;;;;;23.85;38.40;101942.41;4906294;29;20047;-79
2022/09/01 10:01:24;;;;;;;4.60;1.50;;;;;;;23.97;39.06;101945.22;4916097;29;20032;-79
2022/09/01 10:03:53;;;;;;;3.55;1.55;;;;;;;24.12;37.14;101953.38;4899045;29;20040;-80
2022/09/01 10:06:34;;;;;;;4.75;1.58;;;;;;;24.25;38.40;101941.69;4914197;29;20098;-80
2022/09/01 10:09:14;;;;;;;9.07;1.65;;;;;;;24.44;36.74;101941.41;4891106;29;20032;-79
2022/09/01 10:11:43;;;;;;;6.87;1.87;;;;;;;24.59;35.78;101949.56;4895332;29;20079;-81
2022/09/01 10:14:17;;;;;;;5.78;1.65;;;;;;;24.76;35.96;101952.06;4914568;29;20361;-81
2022/09/01 10:16:45;;;;;;;4.72;1.38;;;;;;;24.95;36.42;101942.75;4915173;29;20056;-80
2022/09/01 10:19:13;;;;;;;10.88;1.38;;;;;;;25.16;35.69;101937.75;4897993;29;20036;-81
2022/09/01 10:21:43;;;;;;;5.28;1.25;;;;;;;25.27;35.40;101936.13;4897442;29;20063;-81
2022/09/01 10:24:28;;;;;;;2.90;1.40;;;;;;;25.25;34.46;101940.78;4897018;29;20126;-81
2022/09/01 10:26:57;;;;;;;7.95;1.50;;;;;;;25.23;33.75;101944.56;4883356;29;20060;-81
2022/09/01 10:29:29;;;;;;;8.05;1.67;;;;;;;25.22;33.68;101937.38;4897820;29;20039;-81
2022/09/01 10:31:55;;;;;;;6.32;1.50;;;;;;;25.19;32.07;101934.88;4915030;29;20118;-81
2022/09/01 10:34:23;;;;;;;4.97;1.25;;;;;;;25.37;32.54;101941.81;4914908;29;20123;-81
2022/09/01 10:36:49;;;;;;;8.65;1.60;;;;;;;25.46;31.02;101937.59;4897979;29;20036;-81
2022/09/01 10:39:17;;;;;;;5.45;1.60;;;;;;;25.58;32.22;101931.34;4914676;29;20452;-81
2022/09/01 10:41:53;;;;;;;10.52;1.48;;;;;;;25.65;31.59;101940.78;4913886;29;20033;-81
2022/09/01 10:44:37;;;;;;;5.00;1.55;;;;;;;25.70;33.04;101926.91;4915452;29;20460;-81
2022/09/01 10:47:29;;;;;;;5.68;1.40;;;;;;;26.00;33.75;101925.81;4913735;29;20124;-81
2022/09/01 10:50:27;;;;;;;5.80;1.40;;;;;;;26.22;32.80;101926.03;4912715;29;20412;-81
2022/09/01 10:52:55;;;;;;;6.22;1.50;;;;;;;26.25;30.72;101933.94;4897531;29;20036;-81
2022/09/01 10:55:24;;;;;;;3.83;1.35;;;;;;;26.16;30.53;101931.88;4898086;29;20541;-81
2022/09/01 10:57:55;;;;;;;3.03;1.30;;;;;;;26.22;31.08;101927.88;4915396;29;20524;-81
2022/09/01 11:00:23;;;;;;;4.85;1.52;;;;;;;26.28;30.13;101924.72;4898108;29;20036;-81
2022/09/01 11:03:10;;;;;;;6.07;1.40;;;;;;;26.33;31.63;101927.97;4882439;29;20172;-80
2022/09/01 11:05:54;;;;;;;3.65;1.38;;;;;;;26.46;32.10;101920.69;4898333;29;20036;-81
2022/09/01 11:08:25;;;;;;;9.07;1.50;;;;;;;26.48;31.00;101918.72;4915040;29;20465;-81
2022/09/01 11:10:58;;;;;;;4.28;1.30;;;;;;;26.60;29.82;101912.41;4898231;29;20059;-80
2022/09/01 11:13:47;;;;;;;4.03;1.40;;;;;;;26.67;30.76;101917.41;4915263;29;20530;-81
2022/09/01 11:16:34;;;;;;;4.78;1.30;;;;;;;26.72;30.07;101917.94;4898679;29;20174;-81
2022/09/01 11:19:32;;;;;;;2.75;1.25;;;;;;;26.86;30.32;101916.94;4908860;29;20032;-81
2022/09/01 11:22:14;;;;;;;6.70;1.20;;;;;;;27.06;29.81;101913.59;4896345;29;20116;-81
2022/09/01 11:24:43;;;;;;;2.42;1.20;;;;;;;27.19;27.93;101914.44;4912469;29;20127;-81
2022/09/01 11:27:30;;;;;;;7.63;1.40;;;;;;;27.30;27.31;101910.03;4897004;29;20350;-80
2022/09/01 11:29:59;;;;;;;6.50;0.98;;;;;;;27.38;27.29;101904.91;4897290;29;20050;-80
2022/09/01 11:32:31;;;;;;;8.07;1.20;;;;;;;27.52;27.00;101903.84;4911934;29;20039;-80
2022/09/01 11:35:01;;;;;;;4.55;1.15;;;;;;;27.45;26.12;101893.44;4908469;29;20040;-80
2022/09/01 11:37:26;;;;;;;9.25;2.05;;;;;;;27.65;26.80;101888.31;4898416;29;20039;-80
2022/09/01 11:39:58;;;;;;;8.65;1.50;;;;;;;27.78;26.99;101889.06;4898429;29;20052;-80
2022/09/01 11:42:42;;;;;;;5.53;1.42;;;;;;;28.00;27.21;101881.97;4899060;29;20040;-80
2022/09/01 11:45:20;;;;;;;8.18;1.63;;;;;;;28.25;26.64;101884.47;4898299;29;20536;-81
2022/09/01 11:47:49;;;;;;;2.78;1.17;;;;;;;28.52;25.89;101886.84;4914494;29;20131;-81
2022/09/01 11:50:15;;;;;;;5.40;1.17;;;;;;;28.70;25.53;101878.16;4899376;29;20453;-80
2022/09/01 11:52:41;;;;;;;3.85;1.50;;;;;;;28.89;25.47;101869.31;4915626;29;20040;-81